createdAt,value
2022-08-31T00:00:11.531Z,10.73
2022-08-31T00:02:57.779Z,9.60
2022-08-31T00:05:24.936Z,8.85
2022-08-31T00:07:52.798Z,8.15
2022-08-31T00:10:32.615Z,10.45
2022-08-31T00:13:00.745Z,9.70
2022-08-31T00:15:29.415Z,8.00
2022-08-31T00:20:33.750Z,8.50
2022-08-31T00:23:05.035Z,9.52
2022-08-31T00:25:33.589Z,9.23
2022-08-31T00:30:30.009Z,10.50
2022-08-31T00:32:58.497Z,10.07
2022-08-31T00:35:28.940Z,8.88
2022-08-31T00:37:56.550Z,8.10
2022-08-31T00:40:24.967Z,10.45
2022-08-31T00:42:52.243Z,8.90
2022-08-31T00:45:20.652Z,10.85
2022-08-31T00:50:17.051Z,8.38
2022-08-31T00:52:54.669Z,8.48
2022-08-31T00:55:32.722Z,8.32
2022-08-31T00:58:08.483Z,8.43
2022-08-31T01:00:37.166Z,9.25
2022-08-31T01:05:35.164Z,10.10
2022-08-31T01:13:02.749Z,8.02
2022-08-31T01:15:30.750Z,8.70
2022-08-31T01:18:03.881Z,8.25
2022-08-31T01:21:12.151Z,7.70
2022-08-31T01:23:44.517Z,8.73
2022-08-31T01:26:17.131Z,8.52
2022-08-31T01:28:44.794Z,8.45
2022-08-31T01:31:27.609Z,8.20
2022-08-31T01:33:55.550Z,8.48
2022-08-31T01:36:26.384Z,9.65
2022-08-31T01:38:53.770Z,9.35
2022-08-31T01:41:21.796Z,10.55
2022-08-31T01:43:52.308Z,9.90
2022-08-31T01:46:20.610Z,8.40
2022-08-31T01:48:48.725Z,7.75
2022-08-31T01:51:20.595Z,7.97
2022-08-31T01:53:50.610Z,9.25
2022-08-31T01:56:29.625Z,9.15
2022-08-31T01:59:00.483Z,10.23
2022-08-31T02:01:37.451Z,7.95
2022-08-31T02:04:07.279Z,8.70
2022-08-31T02:06:36.208Z,8.25
2022-08-31T02:09:05.993Z,7.63
2022-08-31T02:11:34.035Z,8.00
2022-08-31T02:14:01.349Z,8.23
2022-08-31T02:16:28.797Z,7.70
2022-08-31T02:18:56.414Z,7.00
2022-08-31T02:21:23.661Z,8.30
2022-08-31T02:23:51.044Z,8.45
2022-08-31T02:26:19.012Z,7.45
2022-08-31T02:28:47.153Z,7.28
2022-08-31T02:31:15.005Z,7.75
2022-08-31T02:33:49.596Z,8.88
2022-08-31T02:36:16.930Z,8.90
2022-08-31T02:38:44.373Z,8.45
2022-08-31T02:41:11.482Z,9.40
2022-08-31T02:43:41.234Z,8.10
2022-08-31T02:46:08.385Z,9.77
2022-08-31T02:48:41.895Z,7.97
2022-08-31T02:51:13.565Z,8.63
2022-08-31T02:53:40.793Z,8.23
2022-08-31T02:56:08.961Z,8.18
2022-08-31T02:58:36.510Z,8.88
2022-08-31T03:01:03.949Z,11.18
2022-08-31T03:03:34.257Z,10.50
2022-08-31T03:06:02.406Z,9.38
2022-08-31T03:08:31.226Z,8.48
2022-08-31T03:11:00.448Z,7.93
2022-08-31T03:13:29.221Z,7.90
2022-08-31T03:15:57.233Z,7.72
2022-08-31T03:20:51.855Z,12.13
2022-08-31T03:23:19.327Z,8.95
2022-08-31T03:25:48.104Z,9.80
2022-08-31T03:28:15.455Z,10.57
2022-08-31T03:30:55.585Z,11.15
2022-08-31T03:33:22.752Z,9.55
2022-08-31T03:35:50.427Z,8.35
2022-08-31T03:38:19.490Z,8.07
2022-08-31T03:40:47.210Z,7.90
2022-08-31T03:43:14.735Z,8.10
2022-08-31T03:45:43.493Z,8.45
2022-08-31T03:48:13.083Z,8.80
2022-08-31T03:50:44.004Z,9.02
2022-08-31T03:53:23.057Z,10.27
2022-08-31T03:56:01.206Z,8.70
2022-08-31T03:58:31.882Z,8.43
2022-08-31T04:01:00.518Z,8.88
2022-08-31T04:03:47.807Z,9.75
2022-08-31T04:06:44.964Z,9.35
2022-08-31T04:09:30.659Z,10.40
2022-08-31T04:12:00.389Z,8.50
2022-08-31T04:14:54.831Z,10.35
2022-08-31T04:18:00.443Z,9.65
2022-08-31T04:20:48.120Z,10.65
2022-08-31T04:23:15.273Z,8.45
2022-08-31T04:25:52.916Z,9.20
2022-08-31T04:28:20.155Z,8.45
2022-08-31T04:30:48.203Z,9.20
2022-08-31T04:33:17.009Z,8.55
2022-08-31T04:35:44.378Z,8.70
2022-08-31T04:38:12.418Z,7.97
2022-08-31T04:40:43.261Z,9.07
2022-08-31T04:43:11.405Z,10.10
2022-08-31T04:45:45.136Z,9.23
2022-08-31T04:48:13.831Z,9.02
2022-08-31T04:50:43.055Z,11.93
2022-08-31T04:53:11.129Z,9.05
2022-08-31T04:55:41.305Z,9.75
2022-08-31T04:58:12.482Z,9.90
2022-08-31T05:00:43.409Z,8.52
2022-08-31T05:03:34.357Z,10.27
2022-08-31T05:06:01.621Z,9.90
2022-08-31T05:08:29.765Z,10.07
2022-08-31T05:10:57.195Z,9.77
2022-08-31T05:13:24.329Z,8.93
2022-08-31T05:15:55.026Z,9.68
2022-08-31T05:18:22.431Z,9.70
2022-08-31T05:20:56.503Z,7.63
2022-08-31T05:23:23.585Z,8.05
2022-08-31T05:25:51.043Z,7.63
2022-08-31T05:28:22.833Z,8.13
2022-08-31T05:30:50.116Z,7.93
2022-08-31T05:33:30.465Z,7.15
2022-08-31T05:36:01.845Z,7.47
2022-08-31T05:38:29.088Z,8.07
2022-08-31T05:40:58.064Z,8.13
2022-08-31T05:43:27.508Z,7.88
2022-08-31T05:45:55.372Z,8.75
2022-08-31T05:48:22.863Z,7.45
2022-08-31T05:51:04.717Z,7.72
2022-08-31T05:53:33.354Z,8.70
2022-08-31T05:56:12.150Z,8.52
2022-08-31T05:58:44.396Z,7.50
2022-08-31T06:01:29.729Z,6.65
2022-08-31T06:04:07.099Z,6.93
2022-08-31T06:06:34.854Z,6.50
2022-08-31T06:09:03.142Z,7.13
2022-08-31T06:11:34.035Z,6.55
2022-08-31T06:14:03.631Z,7.63
2022-08-31T06:16:32.723Z,6.72
2022-08-31T06:19:02.698Z,7.55
2022-08-31T06:21:36.617Z,6.10
2022-08-31T06:24:05.678Z,6.63
2022-08-31T06:26:36.109Z,6.22
2022-08-31T06:29:08.532Z,6.95
2022-08-31T06:31:46.808Z,5.80
2022-08-31T06:34:18.593Z,6.38
2022-08-31T06:37:07.974Z,5.75
2022-08-31T06:40:02.406Z,5.18
2022-08-31T06:42:55.766Z,5.88
2022-08-31T06:45:32.860Z,6.20
2022-08-31T06:48:18.577Z,5.78
2022-08-31T06:50:45.667Z,6.07
2022-08-31T06:53:13.471Z,6.13
2022-08-31T06:56:19.697Z,6.10
2022-08-31T06:59:20.541Z,6.43
2022-08-31T07:02:17.548Z,5.90
2022-08-31T07:04:45.064Z,7.00
2022-08-31T07:07:12.297Z,5.32
2022-08-31T07:09:41.539Z,6.18
2022-08-31T07:12:09.811Z,6.03
2022-08-31T07:14:37.060Z,5.70
2022-08-31T07:17:07.103Z,4.70
2022-08-31T07:19:34.797Z,7.20
2022-08-31T07:22:06.771Z,5.88
2022-08-31T07:24:36.122Z,5.45
2022-08-31T07:27:10.337Z,5.55
2022-08-31T07:29:49.245Z,6.68
2022-08-31T07:32:18.245Z,7.00
2022-08-31T07:34:45.963Z,6.03
2022-08-31T07:37:37.714Z,6.25
2022-08-31T07:40:25.820Z,6.60
2022-08-31T07:42:54.617Z,7.25
2022-08-31T07:45:25.848Z,6.35
2022-08-31T07:47:59.867Z,7.20
2022-08-31T07:50:37.635Z,7.05
2022-08-31T07:53:20.702Z,7.38
2022-08-31T07:56:11.172Z,7.00
2022-08-31T07:58:42.119Z,9.20
2022-08-31T08:01:11.235Z,6.10
2022-08-31T08:03:43.422Z,7.78
2022-08-31T08:06:32.508Z,7.97
2022-08-31T08:09:29.200Z,7.97
2022-08-31T08:12:19.667Z,6.95
2022-08-31T08:15:19.115Z,7.15
2022-08-31T08:18:05.976Z,6.88
2022-08-31T08:20:40.751Z,7.63
2022-08-31T08:23:14.896Z,7.28
2022-08-31T08:26:21.681Z,7.43
2022-08-31T08:29:27.787Z,6.70
2022-08-31T08:31:56.687Z,7.78
2022-08-31T08:34:32.170Z,7.80
2022-08-31T08:37:01.469Z,8.50
2022-08-31T08:39:28.884Z,6.45
2022-08-31T08:42:15.486Z,7.30
2022-08-31T08:44:43.840Z,7.35
2022-08-31T08:47:24.065Z,7.57
2022-08-31T08:50:04.849Z,6.68
2022-08-31T08:52:46.282Z,7.13
2022-08-31T08:55:24.329Z,6.38
2022-08-31T08:57:55.518Z,6.53
2022-08-31T09:00:27.908Z,7.25
2022-08-31T09:03:15.208Z,6.78
2022-08-31T09:06:16.619Z,6.63
2022-08-31T09:09:17.509Z,6.95
2022-08-31T09:12:04.372Z,6.90
2022-08-31T09:14:38.658Z,6.88
2022-08-31T09:17:49.786Z,7.05
2022-08-31T09:20:17.553Z,6.43
2022-08-31T09:22:50.085Z,7.40
2022-08-31T09:25:37.994Z,6.72
2022-08-31T09:28:38.340Z,8.70
2022-08-31T09:31:06.007Z,6.78
2022-08-31T09:33:45.923Z,6.25
2022-08-31T09:36:19.178Z,8.30
2022-08-31T09:38:47.328Z,8.02
2022-08-31T09:41:35.944Z,9.70
2022-08-31T09:44:39.727Z,7.07
2022-08-31T09:47:48.144Z,7.30
2022-08-31T09:50:45.440Z,7.20
2022-08-31T09:53:46.003Z,7.45
2022-08-31T09:56:22.605Z,7.25
2022-08-31T09:58:54.125Z,8.43
2022-08-31T10:01:43.601Z,7.68
2022-08-31T10:04:16.590Z,6.72
2022-08-31T10:07:21.487Z,7.32
2022-08-31T10:09:57.766Z,7.38
2022-08-31T10:12:50.469Z,6.72
2022-08-31T10:15:34.810Z,6.70
2022-08-31T10:18:14.438Z,6.28
2022-08-31T10:20:55.365Z,6.25
2022-08-31T10:23:54.247Z,6.93
2022-08-31T10:26:36.795Z,6.05
2022-08-31T10:29:29.468Z,5.47
2022-08-31T10:31:59.315Z,6.93
2022-08-31T10:34:58.445Z,5.85
2022-08-31T10:37:49.073Z,6.32
2022-08-31T10:40:33.331Z,6.57
2022-08-31T10:43:17.946Z,6.18
2022-08-31T10:45:52.336Z,6.03
2022-08-31T10:48:24.019Z,6.03
2022-08-31T10:51:08.525Z,6.03
2022-08-31T10:54:11.597Z,6.50
2022-08-31T10:56:58.522Z,7.00
2022-08-31T10:59:28.699Z,5.55
2022-08-31T11:02:37.294Z,5.80
2022-08-31T11:05:07.409Z,6.25
2022-08-31T11:07:48.683Z,6.15
2022-08-31T11:10:51.219Z,6.78
2022-08-31T11:13:50.533Z,5.75
2022-08-31T11:16:32.411Z,6.00
2022-08-31T11:19:28.166Z,6.55
2022-08-31T11:22:13.632Z,5.85
2022-08-31T11:25:03.279Z,6.45
2022-08-31T11:27:41.207Z,5.60
2022-08-31T11:30:29.211Z,7.28
2022-08-31T11:32:59.775Z,5.75
2022-08-31T11:35:48.975Z,5.03
2022-08-31T11:38:56.406Z,6.43
2022-08-31T11:41:48.665Z,5.75
2022-08-31T11:44:38.866Z,5.20
2022-08-31T11:47:34.031Z,6.30
2022-08-31T11:50:21.772Z,6.47
2022-08-31T11:52:53.521Z,5.65
2022-08-31T11:55:44.513Z,5.45
2022-08-31T11:58:25.483Z,5.65
2022-08-31T12:01:10.578Z,5.47
2022-08-31T12:04:27.402Z,5.93
2022-08-31T12:07:03.469Z,5.85
2022-08-31T12:09:54.794Z,5.93
2022-08-31T12:12:49.702Z,5.80
2022-08-31T12:15:35.016Z,5.05
2022-08-31T12:18:30.369Z,4.85
2022-08-31T12:21:47.949Z,4.95
2022-08-31T12:28:06.993Z,6.03
2022-08-31T12:30:34.545Z,6.10
2022-08-31T12:33:27.932Z,5.78
2022-08-31T12:36:17.536Z,6.22
2022-08-31T12:38:45.268Z,7.43
2022-08-31T12:41:14.019Z,6.75
2022-08-31T12:43:50.799Z,6.63
2022-08-31T12:46:48.418Z,6.20
2022-08-31T12:50:04.763Z,5.95
2022-08-31T12:52:49.836Z,4.93
2022-08-31T12:55:55.170Z,7.22
2022-08-31T12:59:01.267Z,5.78
2022-08-31T13:01:28.928Z,4.95
2022-08-31T13:06:32.820Z,6.50
2022-08-31T13:09:01.381Z,6.45
2022-08-31T13:11:41.979Z,6.82
2022-08-31T13:14:27.344Z,5.80
2022-08-31T13:17:14.404Z,5.63
2022-08-31T13:19:51.168Z,6.70
2022-08-31T13:22:48.228Z,6.00
2022-08-31T13:25:36.187Z,6.70
2022-08-31T13:28:13.556Z,5.20
2022-08-31T13:30:55.150Z,7.03
2022-08-31T13:33:34.385Z,6.63
2022-08-31T13:38:50.148Z,4.65
2022-08-31T13:41:56.731Z,5.35
2022-08-31T13:44:33.081Z,6.47
2022-08-31T13:47:04.801Z,4.03
2022-08-31T13:49:41.218Z,5.45
2022-08-31T13:53:26.313Z,4.57
2022-08-31T13:55:54.110Z,6.38
2022-08-31T13:58:28.237Z,5.65
2022-08-31T14:01:24.973Z,5.53
2022-08-31T14:03:58.240Z,5.45
2022-08-31T14:06:37.299Z,5.53
2022-08-31T14:09:13.396Z,5.72
2022-08-31T14:11:54.356Z,5.95
2022-08-31T14:14:39.146Z,5.75
2022-08-31T14:17:14.703Z,5.70
2022-08-31T14:19:43.341Z,5.80
2022-08-31T14:22:32.480Z,6.40
2022-08-31T14:25:00.241Z,7.00
2022-08-31T14:27:29.508Z,7.32
2022-08-31T14:29:57.682Z,8.00
2022-08-31T14:32:25.145Z,5.80
2022-08-31T14:34:52.745Z,4.70
2022-08-31T14:37:21.632Z,7.72
2022-08-31T14:40:04.151Z,6.57
2022-08-31T14:42:38.201Z,6.20
2022-08-31T14:45:22.910Z,6.32
2022-08-31T14:47:51.659Z,5.85
2022-08-31T14:50:24.217Z,5.65
2022-08-31T14:52:53.074Z,7.57
2022-08-31T14:55:22.189Z,26.20
2022-08-31T14:58:07.689Z,6.18
2022-08-31T15:00:43.141Z,6.57
2022-08-31T15:03:11.259Z,6.82
2022-08-31T15:05:40.045Z,7.38
2022-08-31T15:08:08.735Z,7.80
2022-08-31T15:10:37.832Z,7.43
2022-08-31T15:13:08.071Z,8.90
2022-08-31T15:15:35.788Z,6.97
2022-08-31T15:18:04.341Z,8.27
2022-08-31T15:23:08.813Z,9.80
2022-08-31T15:25:38.576Z,8.40
2022-08-31T15:28:07.969Z,9.00
2022-08-31T15:30:39.091Z,8.43
2022-08-31T15:33:10.428Z,7.47
2022-08-31T15:35:41.239Z,6.88
2022-08-31T15:38:09.830Z,7.95
2022-08-31T15:40:38.906Z,7.30
2022-08-31T15:43:14.707Z,7.55
2022-08-31T15:45:42.053Z,6.85
2022-08-31T15:48:28.003Z,8.43
2022-08-31T15:51:00.854Z,8.63
2022-08-31T15:53:29.821Z,7.88
2022-08-31T15:56:05.760Z,8.43
2022-08-31T15:58:34.994Z,7.22
2022-08-31T16:01:02.262Z,8.00
2022-08-31T16:03:35.178Z,7.07
2022-08-31T16:06:04.790Z,7.85
2022-08-31T16:08:31.912Z,6.47
2022-08-31T16:10:59.126Z,6.25
2022-08-31T16:13:26.264Z,4.85
2022-08-31T16:15:53.385Z,4.35
2022-08-31T16:18:22.499Z,7.07
2022-08-31T16:20:51.129Z,6.47
2022-08-31T16:25:48.188Z,7.40
2022-08-31T16:28:20.518Z,7.30
2022-08-31T16:30:51.240Z,6.32
2022-08-31T16:33:20.016Z,6.82
2022-08-31T16:38:14.808Z,7.60
2022-08-31T16:40:42.574Z,7.63
2022-08-31T16:43:10.519Z,6.40
2022-08-31T16:45:40.147Z,5.07
2022-08-31T16:48:29.413Z,5.22
2022-08-31T16:51:02.315Z,5.53
2022-08-31T16:53:30.863Z,5.20
2022-08-31T16:55:59.166Z,6.75
2022-08-31T16:58:48.174Z,6.05
2022-08-31T17:01:21.469Z,5.65
2022-08-31T17:04:01.461Z,5.85
2022-08-31T17:06:34.389Z,4.93
2022-08-31T17:09:11.515Z,5.70
2022-08-31T17:11:48.381Z,6.07
2022-08-31T17:14:20.385Z,6.78
2022-08-31T17:16:52.293Z,6.95
2022-08-31T17:19:19.573Z,6.47
2022-08-31T17:21:49.574Z,5.25
2022-08-31T17:24:27.708Z,7.45
2022-08-31T17:26:59.031Z,6.03
2022-08-31T17:29:34.040Z,5.32
2022-08-31T17:32:05.942Z,4.75
2022-08-31T17:34:36.186Z,5.50
2022-08-31T17:37:13.687Z,4.80
2022-08-31T17:39:45.331Z,4.50
2022-08-31T17:42:14.534Z,4.25
2022-08-31T17:44:44.261Z,5.25
2022-08-31T17:47:11.488Z,4.95
2022-08-31T17:49:42.119Z,5.05
2022-08-31T17:52:12.425Z,5.65
2022-08-31T17:54:42.400Z,6.07
2022-08-31T17:57:15.265Z,5.07
2022-08-31T17:59:48.387Z,5.10
2022-08-31T18:02:20.607Z,4.80
2022-08-31T18:04:48.324Z,5.13
2022-08-31T18:07:15.658Z,4.82
2022-08-31T18:09:46.091Z,5.15
2022-08-31T18:12:15.859Z,4.63
2022-08-31T18:14:43.946Z,4.78
2022-08-31T18:17:15.452Z,4.50
2022-08-31T18:19:44.118Z,4.07
2022-08-31T18:24:41.718Z,5.40
2022-08-31T18:27:13.680Z,4.60
2022-08-31T18:29:43.539Z,5.05
2022-08-31T18:32:11.435Z,4.13
2022-08-31T18:34:44.059Z,5.43
2022-08-31T18:37:12.401Z,5.40
2022-08-31T18:39:59.547Z,5.90
2022-08-31T18:42:47.334Z,6.05
2022-08-31T18:45:20.482Z,6.82
2022-08-31T18:48:21.271Z,7.03
2022-08-31T18:50:43.597Z,7.47
2022-08-31T18:53:14.999Z,7.30
2022-08-31T18:55:43.634Z,6.95
2022-08-31T18:58:11.181Z,7.77
2022-08-31T19:00:39.495Z,7.57
2022-08-31T19:03:07.122Z,6.35
2022-08-31T19:05:39.230Z,6.28
2022-08-31T19:08:06.628Z,6.57
2022-08-31T19:10:34.243Z,6.15
2022-08-31T19:13:04.394Z,7.13
2022-08-31T19:15:36.335Z,4.45
2022-08-31T19:18:04.592Z,4.60
2022-08-31T19:20:34.663Z,5.75
2022-08-31T19:23:02.038Z,5.82
2022-08-31T19:25:31.260Z,5.95
2022-08-31T19:28:00.781Z,5.80
2022-08-31T19:30:28.570Z,5.75
2022-08-31T19:32:55.921Z,6.00
2022-08-31T19:35:26.737Z,5.63
2022-08-31T19:37:55.527Z,5.93
2022-08-31T19:40:35.648Z,5.80
2022-08-31T19:45:51.545Z,5.45
2022-08-31T19:48:22.453Z,6.07
2022-08-31T19:50:50.709Z,6.55
2022-08-31T19:53:21.790Z,6.47
2022-08-31T19:55:52.885Z,6.30
2022-08-31T19:58:24.636Z,5.20
2022-08-31T20:01:04.501Z,5.97
2022-08-31T20:03:33.422Z,6.43
2022-08-31T20:06:14.045Z,5.85
2022-08-31T20:08:43.527Z,6.88
2022-08-31T20:11:19.297Z,9.18
2022-08-31T20:13:49.725Z,7.93
2022-08-31T20:16:19.213Z,6.85
2022-08-31T20:18:47.844Z,6.15
2022-08-31T20:21:22.890Z,6.57
2022-08-31T20:23:55.482Z,6.28
2022-08-31T20:26:33.138Z,7.55
2022-08-31T20:29:09.264Z,6.18
2022-08-31T20:31:40.940Z,7.88
2022-08-31T20:34:09.174Z,7.90
2022-08-31T20:36:39.857Z,5.90
2022-08-31T20:39:14.212Z,7.32
2022-08-31T20:41:48.477Z,5.80
2022-08-31T20:44:23.628Z,6.53
2022-08-31T20:47:12.756Z,5.97
2022-08-31T20:49:44.320Z,6.35
2022-08-31T20:52:15.022Z,8.75
2022-08-31T20:54:43.059Z,7.75
2022-08-31T20:57:12.836Z,8.57
2022-08-31T20:59:40.922Z,9.88
2022-08-31T21:02:09.087Z,7.28
2022-08-31T21:04:41.944Z,7.45
2022-08-31T21:07:11.481Z,6.80
2022-08-31T21:09:42.207Z,7.80
2022-08-31T21:12:14.179Z,9.13
2022-08-31T21:14:46.222Z,7.70
2022-08-31T21:17:15.193Z,8.43
2022-08-31T21:19:44.125Z,7.90
2022-08-31T21:22:16.629Z,6.72
2022-08-31T21:24:44.823Z,6.68
2022-08-31T21:27:16.365Z,9.23
2022-08-31T21:29:46.359Z,7.60
2022-08-31T21:32:15.193Z,10.75
2022-08-31T21:37:10.205Z,7.57
2022-08-31T21:39:39.721Z,6.53
2022-08-31T21:42:07.297Z,12.75
2022-08-31T21:44:35.460Z,8.52
2022-08-31T21:47:03.019Z,8.45
2022-08-31T21:49:30.408Z,8.30
2022-08-31T21:51:59.184Z,8.77
2022-08-31T21:54:28.018Z,9.23
2022-08-31T21:59:34.618Z,9.00
2022-08-31T22:02:10.404Z,9.90
2022-08-31T22:04:43.342Z,11.25
2022-08-31T22:07:12.881Z,8.18
2022-08-31T22:09:40.984Z,9.40
2022-08-31T22:12:09.076Z,7.78
2022-08-31T22:14:39.255Z,10.18
2022-08-31T22:17:08.736Z,11.73
2022-08-31T22:19:38.995Z,12.15
2022-08-31T22:22:11.771Z,10.75
2022-08-31T22:24:41.006Z,8.35
2022-08-31T22:27:11.265Z,8.60
2022-08-31T22:29:39.767Z,8.90
2022-08-31T22:32:13.179Z,8.23
2022-08-31T22:34:42.228Z,7.07
2022-08-31T22:37:13.162Z,9.80
2022-08-31T22:39:41.811Z,8.13
2022-08-31T22:42:09.284Z,8.65
2022-08-31T22:44:37.036Z,8.57
2022-08-31T22:47:04.775Z,7.07
2022-08-31T22:49:32.669Z,8.00
2022-08-31T22:51:59.757Z,9.00
2022-08-31T22:54:27.402Z,7.15
2022-08-31T22:56:55.244Z,9.02
2022-08-31T22:59:26.630Z,8.05
2022-08-31T23:02:02.468Z,7.05
2022-08-31T23:04:32.972Z,9.02
2022-08-31T23:07:02.926Z,8.32
2022-08-31T23:09:32.952Z,7.20
2022-08-31T23:12:03.776Z,8.57
2022-08-31T23:14:32.062Z,9.15
2022-08-31T23:17:03.241Z,9.50
2022-08-31T23:19:37.790Z,8.75
2022-08-31T23:22:10.311Z,9.88
2022-08-31T23:24:48.416Z,10.20
2022-08-31T23:27:20.946Z,9.15
2022-08-31T23:29:52.915Z,9.55
2022-08-31T23:32:27.090Z,9.68
2022-08-31T23:34:57.381Z,9.65
2022-08-31T23:37:26.984Z,10.95
2022-08-31T23:39:55.363Z,10.85
2022-08-31T23:42:24.936Z,12.25
2022-08-31T23:44:53.762Z,10.82
2022-08-31T23:49:53.216Z,13.55
2022-08-31T23:52:30.005Z,12.18
2022-08-31T23:54:58.720Z,10.13
2022-08-31T23:57:32.818Z,11.30
